createdAt,value
2018-08-12T00:01:20.741Z,20.03
2018-08-12T00:03:49.697Z,20.03
2018-08-12T00:06:18.704Z,20.03
2018-08-12T00:08:47.700Z,20.10
2018-08-12T00:11:16.659Z,19.97
2018-08-12T00:13:45.706Z,19.84
2018-08-12T00:16:14.777Z,19.78
2018-08-12T00:18:43.867Z,19.66
2018-08-12T00:21:12.869Z,19.61
2018-08-12T00:23:41.828Z,19.52
2018-08-12T00:26:10.861Z,19.49
2018-08-12T00:28:39.919Z,19.43
2018-08-12T00:31:08.962Z,19.45
2018-08-12T00:36:12.057Z,19.45
2018-08-12T00:38:41.011Z,19.43
2018-08-12T00:41:10.033Z,19.41
2018-08-12T00:43:39.004Z,19.39
2018-08-12T00:46:08.008Z,19.36
2018-08-12T00:48:36.955Z,19.34
2018-08-12T00:51:06.207Z,19.30
2018-08-12T00:53:35.156Z,19.32
2018-08-12T00:56:04.207Z,19.28
2018-08-12T00:58:33.217Z,19.23
2018-08-12T01:01:02.233Z,19.13
2018-08-12T01:03:31.168Z,19.11
2018-08-12T01:06:00.232Z,19.10
2018-08-12T01:08:29.208Z,19.05
2018-08-12T01:10:58.205Z,18.98
2018-08-12T01:13:27.285Z,18.89
2018-08-12T01:15:56.236Z,18.81
2018-08-12T01:18:25.181Z,18.76
2018-08-12T01:20:54.286Z,18.59
2018-08-12T01:23:23.256Z,18.53
2018-08-12T01:25:52.414Z,18.49
2018-08-12T01:28:21.433Z,18.46
2018-08-12T01:30:50.449Z,18.36
2018-08-12T01:33:19.505Z,18.31
2018-08-12T01:35:48.597Z,18.29
2018-08-12T01:38:17.655Z,18.29
2018-08-12T01:40:46.668Z,18.26
2018-08-12T01:43:15.687Z,18.25
2018-08-12T01:45:44.717Z,18.23
2018-08-12T01:48:13.790Z,18.22
2018-08-12T01:50:42.753Z,18.20
2018-08-12T01:53:11.753Z,18.19
2018-08-12T01:55:40.822Z,18.21
2018-08-12T01:58:10.082Z,18.23
2018-08-12T02:00:39.117Z,18.23
2018-08-12T02:03:08.181Z,18.21
2018-08-12T02:05:37.133Z,18.21
2018-08-12T02:08:06.179Z,18.21
2018-08-12T02:10:35.247Z,18.19
2018-08-12T02:13:04.328Z,18.19
2018-08-12T02:15:33.271Z,18.21
2018-08-12T02:18:02.318Z,18.20
2018-08-12T02:20:31.296Z,18.18
2018-08-12T02:23:00.244Z,18.17
2018-08-12T02:25:29.273Z,18.16
2018-08-12T02:27:58.213Z,18.16
2018-08-12T02:30:27.236Z,18.12
2018-08-12T02:32:56.262Z,18.03
2018-08-12T02:35:25.329Z,18.01
2018-08-12T02:37:54.361Z,18.01
2018-08-12T02:40:23.378Z,17.95
2018-08-12T02:42:52.462Z,17.87
2018-08-12T02:45:21.497Z,17.83
2018-08-12T02:47:50.577Z,17.79
2018-08-12T02:50:19.664Z,17.78
2018-08-12T02:52:48.676Z,17.79
2018-08-12T02:55:17.668Z,17.75
2018-08-12T02:57:46.669Z,17.66
2018-08-12T03:00:15.713Z,17.59
2018-08-12T03:02:44.717Z,17.59
2018-08-12T03:05:13.804Z,17.58
2018-08-12T03:07:42.752Z,17.58
2018-08-12T03:10:11.776Z,17.56
2018-08-12T03:12:40.792Z,17.52
2018-08-12T03:15:10.787Z,17.37
2018-08-12T03:17:39.999Z,17.35
2018-08-12T03:20:10.646Z,17.30
2018-08-12T03:22:39.659Z,17.32
2018-08-12T03:25:09.716Z,17.27
2018-08-12T03:27:38.806Z,17.27
2018-08-12T03:30:09.271Z,17.28
2018-08-12T03:32:38.271Z,17.31
2018-08-12T03:35:07.352Z,17.30
2018-08-12T03:37:36.444Z,17.27
2018-08-12T03:40:07.540Z,17.27
2018-08-12T03:42:36.767Z,17.28
2018-08-12T03:45:06.482Z,17.36
2018-08-12T03:47:35.468Z,17.44
2018-08-12T03:50:04.972Z,17.43
2018-08-12T03:52:34.063Z,17.48
2018-08-12T03:55:03.024Z,17.54
2018-08-12T03:57:32.056Z,17.56
2018-08-12T04:00:01.019Z,17.62
2018-08-12T04:02:29.973Z,17.72
2018-08-12T04:04:58.947Z,17.79
2018-08-12T04:07:27.936Z,17.95
2018-08-12T04:09:56.941Z,18.00
2018-08-12T04:12:25.958Z,18.04
2018-08-12T04:14:55.043Z,18.20
2018-08-12T04:17:24.046Z,18.38
2018-08-12T04:19:53.058Z,18.43
2018-08-12T04:22:22.101Z,18.47
2018-08-12T04:24:51.108Z,18.53
2018-08-12T04:27:20.128Z,18.75
2018-08-12T04:29:49.092Z,19.32
2018-08-12T04:32:18.119Z,21.20
2018-08-12T04:34:47.124Z,23.35
2018-08-12T04:37:16.144Z,25.14
2018-08-12T04:39:45.108Z,26.93
2018-08-12T04:42:14.071Z,28.65
2018-08-12T04:44:43.104Z,29.95
2018-08-12T04:47:12.080Z,31.03
2018-08-12T04:49:41.320Z,32.28
2018-08-12T04:52:10.313Z,32.73
2018-08-12T04:54:39.320Z,33.58
2018-08-12T04:57:08.268Z,34.35
2018-08-12T04:59:37.261Z,34.92
2018-08-12T05:02:06.260Z,35.25
2018-08-12T05:04:35.291Z,35.65
2018-08-12T05:07:04.541Z,35.80
2018-08-12T05:09:33.532Z,35.47
2018-08-12T05:12:02.479Z,35.33
2018-08-12T05:14:31.566Z,35.56
2018-08-12T05:17:00.508Z,35.77
2018-08-12T05:19:29.671Z,35.76
2018-08-12T05:21:58.674Z,36.14
2018-08-12T05:24:27.647Z,35.90
2018-08-12T05:26:56.587Z,36.22
2018-08-12T05:29:25.640Z,36.75
2018-08-12T05:31:54.789Z,36.51
2018-08-12T05:34:23.776Z,36.50
2018-08-12T05:36:52.835Z,37.00
2018-08-12T05:39:21.864Z,37.15
2018-08-12T05:41:50.935Z,36.67
2018-08-12T05:44:20.040Z,36.94
2018-08-12T05:46:49.017Z,37.39
2018-08-12T05:49:18.062Z,37.44
2018-08-12T05:51:47.168Z,37.57
2018-08-12T05:54:16.123Z,37.97
2018-08-12T05:56:45.123Z,37.45
2018-08-12T05:59:14.132Z,37.81
2018-08-12T06:01:43.067Z,37.96
2018-08-12T06:04:12.032Z,38.30
2018-08-12T06:06:40.972Z,37.29
2018-08-12T06:09:11.014Z,35.62
2018-08-12T06:11:40.040Z,33.51
2018-08-12T06:14:09.468Z,32.00
2018-08-12T06:16:38.456Z,30.83
2018-08-12T06:19:07.444Z,30.17
2018-08-12T06:21:36.452Z,29.60
2018-08-12T06:24:05.379Z,29.69
2018-08-12T06:26:34.324Z,29.84
2018-08-12T06:29:03.390Z,31.09
2018-08-12T06:31:32.509Z,32.64
2018-08-12T06:34:01.519Z,33.22
2018-08-12T06:36:30.598Z,33.24
2018-08-12T06:38:59.676Z,32.51
2018-08-12T06:41:28.775Z,32.02
2018-08-12T06:43:58.104Z,31.74
2018-08-12T06:46:27.102Z,31.76
2018-08-12T06:48:56.072Z,32.23
2018-08-12T06:51:25.181Z,32.02
2018-08-12T06:53:54.119Z,32.75
2018-08-12T06:56:23.116Z,33.42
2018-08-12T06:58:52.123Z,33.97
2018-08-12T07:01:21.080Z,33.99
2018-08-12T07:03:50.024Z,33.43
2018-08-12T07:06:19.023Z,32.63
2018-08-12T07:08:48.004Z,32.01
2018-08-12T07:11:17.052Z,31.51
2018-08-12T07:13:46.060Z,31.60
2018-08-12T07:16:14.992Z,31.28
2018-08-12T07:18:43.964Z,30.80
2018-08-12T07:21:13.001Z,30.60
2018-08-12T07:23:42.000Z,30.40
2018-08-12T07:26:11.032Z,30.06
2018-08-12T07:28:40.013Z,29.84
2018-08-12T07:31:09.024Z,29.91
2018-08-12T07:33:38.005Z,29.96
2018-08-12T07:36:07.016Z,29.83
2018-08-12T07:38:36.096Z,30.01
2018-08-12T07:41:05.231Z,30.15
2018-08-12T07:43:34.169Z,30.07
2018-08-12T07:46:03.632Z,29.98
2018-08-12T07:48:32.815Z,30.48
2018-08-12T07:51:01.811Z,30.85
2018-08-12T07:53:31.428Z,31.25
2018-08-12T07:56:00.530Z,31.75
2018-08-12T07:58:29.524Z,32.16
2018-08-12T08:00:59.329Z,32.18
2018-08-12T08:03:29.267Z,32.05
2018-08-12T08:05:58.978Z,31.80
2018-08-12T08:08:28.077Z,31.71
2018-08-12T08:10:57.073Z,32.41
2018-08-12T08:13:26.014Z,33.28
2018-08-12T08:15:55.085Z,33.45
2018-08-12T08:18:24.068Z,33.25
2018-08-12T08:20:52.999Z,33.05
2018-08-12T08:23:22.021Z,32.37
2018-08-12T08:25:51.047Z,32.02
2018-08-12T08:28:20.002Z,32.01
2018-08-12T08:30:48.992Z,31.66
2018-08-12T08:33:19.592Z,31.64
2018-08-12T08:35:48.548Z,31.62
2018-08-12T08:38:17.556Z,31.89
2018-08-12T08:40:46.557Z,31.75
2018-08-12T08:43:15.489Z,31.53
2018-08-12T08:45:44.525Z,31.47
2018-08-12T08:48:13.494Z,31.39
2018-08-12T08:50:42.640Z,31.91
2018-08-12T08:53:11.631Z,32.04
2018-08-12T08:55:40.778Z,31.88
2018-08-12T08:58:09.773Z,31.97
2018-08-12T09:00:38.789Z,31.74
2018-08-12T09:03:07.792Z,31.60
2018-08-12T09:05:36.728Z,31.76
2018-08-12T09:08:05.942Z,31.98
2018-08-12T09:10:34.941Z,32.10
2018-08-12T09:13:03.919Z,32.16
2018-08-12T09:15:32.887Z,32.29
2018-08-12T09:18:01.921Z,32.43
2018-08-12T09:20:30.933Z,32.43
2018-08-12T09:22:59.938Z,32.37
2018-08-12T09:25:28.951Z,32.39
2018-08-12T09:27:57.984Z,32.44
2018-08-12T09:30:26.968Z,32.39
2018-08-12T09:32:55.992Z,32.36
2018-08-12T09:35:24.993Z,32.58
2018-08-12T09:37:53.990Z,32.56
2018-08-12T09:40:22.932Z,32.39
2018-08-12T09:42:51.960Z,32.45
2018-08-12T09:45:21.989Z,32.53
2018-08-12T09:47:51.020Z,32.61
2018-08-12T09:50:20.940Z,32.76
2018-08-12T09:52:51.104Z,33.10
2018-08-12T09:55:20.236Z,33.29
2018-08-12T09:57:49.183Z,33.65
2018-08-12T10:00:23.776Z,33.86
2018-08-12T10:02:54.298Z,33.83
2018-08-12T10:05:23.364Z,33.82
2018-08-12T10:07:52.396Z,33.64
2018-08-12T10:10:21.473Z,33.63
2018-08-12T10:12:50.516Z,33.66
2018-08-12T10:15:19.659Z,33.64
2018-08-12T10:17:50.756Z,33.54
2018-08-12T10:20:19.859Z,33.55
2018-08-12T10:22:48.965Z,33.91
2018-08-12T10:25:18.528Z,34.16
2018-08-12T10:27:47.636Z,34.00
2018-08-12T10:30:16.781Z,34.17
2018-08-12T10:32:45.998Z,34.17
2018-08-12T10:35:17.161Z,34.26
2018-08-12T10:37:46.657Z,34.16
2018-08-12T10:40:18.805Z,34.17
2018-08-12T10:42:48.731Z,34.34
2018-08-12T10:45:17.808Z,34.69
2018-08-12T10:47:47.013Z,35.12
2018-08-12T10:50:18.772Z,35.86
2018-08-12T10:52:48.700Z,36.25
2018-08-12T10:55:19.589Z,36.93
2018-08-12T10:57:49.277Z,37.69
2018-08-12T11:00:24.384Z,38.12
2018-08-12T11:02:53.748Z,38.29
2018-08-12T11:05:22.703Z,38.11
2018-08-12T11:07:55.172Z,37.56
2018-08-12T11:10:24.383Z,37.24
2018-08-12T11:12:53.385Z,37.21
2018-08-12T11:15:22.496Z,37.21
2018-08-12T11:17:51.562Z,37.12
2018-08-12T11:20:20.646Z,37.01
2018-08-12T11:22:49.680Z,36.96
2018-08-12T11:25:18.619Z,37.03
2018-08-12T11:27:47.585Z,37.49
2018-08-12T11:30:17.943Z,37.50
2018-08-12T11:32:47.004Z,37.12
2018-08-12T11:35:17.303Z,37.20
2018-08-12T11:37:46.756Z,37.51
2018-08-12T11:40:16.524Z,37.86
2018-08-12T11:42:45.471Z,37.94
2018-08-12T11:45:17.946Z,37.79
2018-08-12T11:47:48.093Z,37.93
2018-08-12T11:50:17.860Z,38.33
2018-08-12T11:52:47.284Z,38.57
2018-08-12T11:55:17.872Z,38.52
2018-08-12T11:57:46.851Z,37.83
2018-08-12T12:00:17.938Z,37.18
2018-08-12T12:02:48.576Z,37.41
2018-08-12T12:05:17.572Z,38.42
2018-08-12T12:07:46.785Z,38.52
2018-08-12T12:10:18.828Z,37.96
2018-08-12T12:12:48.928Z,38.38
2018-08-12T12:15:18.247Z,38.56
2018-08-12T12:17:47.884Z,39.35
2018-08-12T12:20:17.763Z,39.63
2018-08-12T12:22:47.235Z,40.18
2018-08-12T12:25:18.491Z,40.27
2018-08-12T12:27:47.508Z,39.96
2018-08-12T12:30:18.733Z,39.48
2018-08-12T12:32:48.519Z,39.88
2018-08-12T12:35:17.477Z,40.12
2018-08-12T12:37:46.669Z,39.30
2018-08-12T12:40:16.951Z,38.90
2018-08-12T12:42:46.492Z,39.37
2018-08-12T12:45:16.112Z,40.32
2018-08-12T12:47:45.336Z,41.10
2018-08-12T12:50:20.352Z,41.99
2018-08-12T12:52:50.451Z,41.62
2018-08-12T12:55:20.409Z,41.56
2018-08-12T12:57:49.676Z,41.33
2018-08-12T13:00:20.079Z,41.11
2018-08-12T13:02:49.455Z,41.16
2018-08-12T13:05:19.767Z,40.43
2018-08-12T13:07:49.476Z,40.08
2018-08-12T13:10:19.106Z,40.71
2018-08-12T13:12:48.035Z,41.01
2018-08-12T13:15:17.892Z,40.42
2018-08-12T13:17:46.924Z,40.80
2018-08-12T13:20:17.947Z,40.94
2018-08-12T13:22:47.920Z,40.43
2018-08-12T13:25:18.732Z,40.89
2018-08-12T13:27:47.931Z,41.36
2018-08-12T13:30:18.008Z,41.85
2018-08-12T13:32:47.694Z,41.66
2018-08-12T13:35:16.707Z,40.04
2018-08-12T13:37:45.675Z,39.18
2018-08-12T13:40:16.268Z,37.87
2018-08-12T13:42:45.837Z,36.90
2018-08-12T13:45:15.231Z,36.44
2018-08-12T13:47:45.148Z,36.15
2018-08-12T13:50:22.184Z,36.23
2018-08-12T13:52:51.833Z,36.61
2018-08-12T13:55:21.379Z,37.20
2018-08-12T13:57:50.999Z,38.03
2018-08-12T14:00:24.605Z,38.61
2018-08-12T14:02:53.666Z,38.95
2018-08-12T14:05:23.088Z,39.04
2018-08-12T14:07:52.547Z,37.92
2018-08-12T14:10:21.624Z,36.80
2018-08-12T14:12:50.628Z,35.72
2018-08-12T14:15:20.320Z,34.88
2018-08-12T14:17:50.100Z,34.32
2018-08-12T14:20:22.164Z,33.35
2018-08-12T14:22:51.500Z,32.72
2018-08-12T14:25:20.536Z,32.41
2018-08-12T14:27:49.567Z,32.16
2018-08-12T14:30:20.956Z,31.95
2018-08-12T14:32:50.639Z,31.80
2018-08-12T14:35:19.688Z,31.58
2018-08-12T14:37:48.807Z,31.43
2018-08-12T14:40:17.838Z,31.21
2018-08-12T14:42:46.853Z,31.05
2018-08-12T14:45:16.459Z,31.00
2018-08-12T14:47:46.736Z,30.91
2018-08-12T14:50:19.125Z,30.84
2018-08-12T14:52:48.165Z,30.82
2018-08-12T14:55:19.199Z,30.72
2018-08-12T14:57:48.154Z,30.72
2018-08-12T15:00:22.319Z,30.66
2018-08-12T15:02:52.400Z,30.51
2018-08-12T15:05:22.687Z,30.36
2018-08-12T15:07:52.457Z,30.20
2018-08-12T15:10:21.467Z,30.37
2018-08-12T15:12:51.305Z,30.43
2018-08-12T15:15:23.247Z,30.34
2018-08-12T15:17:52.349Z,30.20
2018-08-12T15:20:21.283Z,30.11
2018-08-12T15:22:50.307Z,30.07
2018-08-12T15:25:20.464Z,30.05
2018-08-12T15:27:49.512Z,29.99
2018-08-12T15:30:18.781Z,30.01
2018-08-12T15:32:47.945Z,29.96
2018-08-12T15:35:16.997Z,29.82
2018-08-12T15:37:45.948Z,29.60
2018-08-12T15:40:15.860Z,29.58
2018-08-12T15:42:45.288Z,29.54
2018-08-12T15:45:15.577Z,29.46
2018-08-12T15:47:45.210Z,29.37
2018-08-12T15:50:14.492Z,29.32
2018-08-12T15:52:44.943Z,29.28
2018-08-12T15:55:14.216Z,29.25
2018-08-12T15:57:43.160Z,29.26
2018-08-12T16:00:18.460Z,29.24
2018-08-12T16:02:47.588Z,29.13
2018-08-12T16:05:16.607Z,29.04
2018-08-12T16:07:46.808Z,28.97
2018-08-12T16:10:18.103Z,28.91
2018-08-12T16:12:48.440Z,28.84
2018-08-12T16:15:17.483Z,28.63
2018-08-12T16:17:46.472Z,28.30
2018-08-12T16:20:15.519Z,28.06
2018-08-12T16:22:44.487Z,27.91
2018-08-12T16:25:16.076Z,27.78
2018-08-12T16:27:45.307Z,27.61
2018-08-12T16:30:15.645Z,27.37
2018-08-12T16:32:44.606Z,27.23
2018-08-12T16:35:15.821Z,27.21
2018-08-12T16:37:45.543Z,27.11
2018-08-12T16:40:16.123Z,26.95
2018-08-12T16:42:45.445Z,26.79
2018-08-12T16:45:15.593Z,26.66
2018-08-12T16:47:45.164Z,26.51
2018-08-12T16:50:14.183Z,26.36
2018-08-12T16:52:43.331Z,26.16
2018-08-12T16:55:16.144Z,26.05
2018-08-12T16:57:45.935Z,25.92
2018-08-12T17:00:17.495Z,25.85
2018-08-12T17:02:46.949Z,25.72
2018-08-12T17:05:17.171Z,25.59
2018-08-12T17:07:46.307Z,25.52
2018-08-12T17:10:16.643Z,25.26
2018-08-12T17:12:45.762Z,25.18
2018-08-12T17:15:16.844Z,25.01
2018-08-12T17:17:46.396Z,24.83
2018-08-12T17:20:16.766Z,24.73
2018-08-12T17:22:46.035Z,24.59
2018-08-12T17:25:15.109Z,24.50
2018-08-12T17:27:44.154Z,24.39
2018-08-12T17:30:14.572Z,24.30
2018-08-12T17:32:43.680Z,24.18
2018-08-12T17:35:12.620Z,24.05
2018-08-12T17:37:42.311Z,23.91
2018-08-12T17:40:12.860Z,23.85
2018-08-12T17:42:41.828Z,23.72
2018-08-12T17:45:11.911Z,23.56
2018-08-12T17:47:41.411Z,23.43
2018-08-12T17:50:12.162Z,23.30
2018-08-12T17:52:41.652Z,23.27
2018-08-12T17:55:10.739Z,23.21
2018-08-12T17:57:39.772Z,23.11
2018-08-12T18:00:11.030Z,23.08
2018-08-12T18:02:40.152Z,23.05
2018-08-12T18:05:09.736Z,23.02
2018-08-12T18:07:39.255Z,23.00
2018-08-12T18:10:08.246Z,22.96
2018-08-12T18:12:37.903Z,22.83
2018-08-12T18:15:08.100Z,22.63
2018-08-12T18:17:37.133Z,22.49
2018-08-12T18:20:06.516Z,22.41
2018-08-12T18:22:35.463Z,22.30
2018-08-12T18:25:05.128Z,22.21
2018-08-12T18:27:34.324Z,22.09
2018-08-12T18:30:03.356Z,22.06
2018-08-12T18:32:32.446Z,21.99
2018-08-12T18:35:01.465Z,21.95
2018-08-12T18:37:30.528Z,21.88
2018-08-12T18:39:59.608Z,21.97
2018-08-12T18:42:28.560Z,21.98
2018-08-12T18:44:57.857Z,21.91
2018-08-12T18:47:26.859Z,21.90
2018-08-12T18:49:55.908Z,22.02
2018-08-12T18:52:24.915Z,22.01
2018-08-12T18:54:53.980Z,21.95
2018-08-12T18:57:22.990Z,21.84
2018-08-12T18:59:51.940Z,21.76
2018-08-12T19:02:21.008Z,21.69
2018-08-12T19:04:50.016Z,21.62
2018-08-12T19:07:19.038Z,21.37
2018-08-12T19:09:48.035Z,21.52
2018-08-12T19:12:17.073Z,21.44
2018-08-12T19:14:46.060Z,21.36
2018-08-12T19:17:15.025Z,21.39
2018-08-12T19:19:44.056Z,21.38
2018-08-12T19:22:13.032Z,21.49
2018-08-12T19:24:41.987Z,21.55
2018-08-12T19:27:10.919Z,21.66
2018-08-12T19:29:40.072Z,21.69
2018-08-12T19:32:09.194Z,21.77
2018-08-12T19:34:38.306Z,21.78
2018-08-12T19:37:07.389Z,21.91
2018-08-12T19:39:36.417Z,21.89
2018-08-12T19:42:05.469Z,22.07
2018-08-12T19:44:34.497Z,22.07
2018-08-12T19:47:03.556Z,22.11
2018-08-12T19:49:32.592Z,22.07
2018-08-12T19:52:01.688Z,22.04
2018-08-12T19:54:30.695Z,22.09
2018-08-12T19:56:59.704Z,22.04
2018-08-12T19:59:28.861Z,22.13
2018-08-12T20:01:57.888Z,22.21
2018-08-12T20:04:26.895Z,22.13
2018-08-12T20:06:55.908Z,22.07
2018-08-12T20:09:24.908Z,22.01
2018-08-12T20:11:53.949Z,22.05
2018-08-12T20:14:22.850Z,22.05
2018-08-12T20:16:51.803Z,21.96
2018-08-12T20:19:20.747Z,21.92
2018-08-12T20:21:49.751Z,21.88
2018-08-12T20:24:18.692Z,21.80
2018-08-12T20:26:47.680Z,21.65
2018-08-12T20:29:16.692Z,21.53
2018-08-12T20:31:45.802Z,21.50
2018-08-12T20:34:14.807Z,21.49
2018-08-12T20:36:44.211Z,21.32
2018-08-12T20:39:13.979Z,21.15
2018-08-12T20:41:43.744Z,21.14
2018-08-12T20:44:12.731Z,21.13
2018-08-12T20:46:41.805Z,21.05
2018-08-12T20:49:10.747Z,21.00
2018-08-12T20:51:39.768Z,21.00
2018-08-12T20:54:08.951Z,20.99
2018-08-12T20:56:37.952Z,20.99
2018-08-12T20:59:06.940Z,20.95
2018-08-12T21:01:35.933Z,20.89
2018-08-12T21:04:04.993Z,20.89
2018-08-12T21:06:33.988Z,20.78
2018-08-12T21:09:02.969Z,20.76
2018-08-12T21:11:31.918Z,20.73
2018-08-12T21:14:00.927Z,20.64
2018-08-12T21:16:29.932Z,20.59
2018-08-12T21:18:58.941Z,20.50
2018-08-12T21:21:27.939Z,20.44
2018-08-12T21:23:56.923Z,20.40
2018-08-12T21:26:25.949Z,20.25
2018-08-12T21:28:54.968Z,20.22
2018-08-12T21:31:24.077Z,20.04
2018-08-12T21:33:53.024Z,19.99
2018-08-12T21:36:21.960Z,19.95
2018-08-12T21:38:50.981Z,19.87
2018-08-12T21:41:19.927Z,19.90
2018-08-12T21:43:48.934Z,19.78
2018-08-12T21:46:17.908Z,19.72
2018-08-12T21:48:47.033Z,19.72
2018-08-12T21:51:16.016Z,19.78
2018-08-12T21:53:45.032Z,19.75
2018-08-12T21:56:13.961Z,19.81
2018-08-12T21:58:42.936Z,19.71
2018-08-12T22:01:11.996Z,19.62
2018-08-12T22:03:40.985Z,19.50
2018-08-12T22:06:09.988Z,19.40
2018-08-12T22:08:39.048Z,19.27
2018-08-12T22:11:08.056Z,19.16
2018-08-12T22:13:36.983Z,19.20
2018-08-12T22:16:06.113Z,19.14
2018-08-12T22:18:35.112Z,19.10
2018-08-12T22:21:04.064Z,19.02
2018-08-12T22:23:33.060Z,18.95
2018-08-12T22:26:01.987Z,18.91
2018-08-12T22:28:30.996Z,18.90
2018-08-12T22:30:59.935Z,18.95
2018-08-12T22:33:28.869Z,18.94
2018-08-12T22:35:57.931Z,18.88
2018-08-12T22:38:26.876Z,18.79
2018-08-12T22:40:55.880Z,18.89
2018-08-12T22:43:24.835Z,18.91
2018-08-12T22:45:54.041Z,18.96
2018-08-12T22:48:22.987Z,18.81
2018-08-12T22:50:51.924Z,18.82
2018-08-12T22:53:20.871Z,18.72
2018-08-12T22:55:49.811Z,18.70
2018-08-12T22:58:18.764Z,18.68
2018-08-12T23:00:47.693Z,18.61
2018-08-12T23:03:16.821Z,18.53
2018-08-12T23:05:45.824Z,18.48
2018-08-12T23:08:14.755Z,18.41
2018-08-12T23:10:43.752Z,18.41
2018-08-12T23:13:12.744Z,18.42
2018-08-12T23:16:21.268Z,18.38
2018-08-12T23:18:50.344Z,18.42
2018-08-12T23:21:19.988Z,18.53
2018-08-12T23:23:49.918Z,18.61
2018-08-12T23:26:23.297Z,18.65
2018-08-12T23:28:52.296Z,18.72
2018-08-12T23:31:21.356Z,18.73
2018-08-12T23:33:50.460Z,18.80
2018-08-12T23:36:19.448Z,18.99
2018-08-12T23:38:48.455Z,19.08
2018-08-12T23:41:17.436Z,19.17
2018-08-12T23:43:46.451Z,19.26
2018-08-12T23:46:15.459Z,19.33
2018-08-12T23:48:44.462Z,19.40
2018-08-12T23:51:13.416Z,19.36
2018-08-12T23:53:42.412Z,19.48
2018-08-12T23:56:11.416Z,19.48
2018-08-12T23:58:40.367Z,19.44
